Teleost — CGCB — position and weather

sailwx.info

Track history (hours):
 
Tides and Currents Weather Stations Pressure Air Temp Water Temp Dewpoint Dewpoint Depression Visibility Wind Speed Wind Dir Waves Ship Positions

Teleost

Last reported at 2017-Nov-25 11:00 UTC. Time now 2017-Nov-25 11:52 UTC.
Position N 53°54' W 052°36'.

Length 63 m; draft 7.2 m.

Type: Ship. MMSI: 316002140.

Wind from 250 at 22 knots

Barometer 1009.7 mb
Air temperature -3.8 ° C
Dewpoint -4.4 ° C

Date/timePositionNaut miles runAvg speedWind from/ knotsBaromVisibWave heightAir tempDewpointWater temp
2017-Nov-25 11:00N 53°54' W 052°36'1212.0 250 / 221009.7 -3.8-4.4
2017-Nov-25 10:00N 54°06' W 052°36'6 6.0 270 / 251008.2 -3.7-4.3
2017-Nov-25 09:00N 54°00' W 052°36'6 6.0 260 / 271007.5 -4.0-4.7
2017-Nov-25 08:00N 53°54' W 052°36'0 0.0 270 / 231006.5 -4.0-4.3
2017-Nov-25 07:00N 53°54' W 052°36'0 0.0 270 / 251005.2 -3.6-3.7
2017-Nov-25 06:00N 53°54' W 052°36'7 7.0 280 / 281003.9 -3.2-3.7
2017-Nov-25 05:00N 53°48' W 052°30'7 7.0 280 / 291002.4 -2.6-2.8
2017-Nov-25 04:00N 53°42' W 052°24'4 3.6 270 / 261001.1 -2.8-2.9
2017-Nov-25 03:00N 53°42' W 052°18'7 7.0 280 / 261000.0 -2.2-2.3
2017-Nov-25 02:00N 53°36' W 052°12'0 0.0 280 / 3999.4 -1.6-1.7
2017-Nov-25 01:00N 53°36' W 052°12'0 0.0 280 / 18998.6 -1.0-1.1
2017-Nov-25 00:00N 53°36' W 052°12'7 7.1 290 / 28997.4 -1.7-1.7
2017-Nov-24 23:00N 53°36' W 052°24'15 7.7 290 / 21996.9 -1.7-1.6
2017-Nov-24 21:00N 53°42' W 052°48'4 3.6 270 / 4995.6 -0.4-0.3
2017-Nov-24 20:00N 53°42' W 052°42'1414.0 240 / 12995.4 -0.7-0.6
2017-Nov-24 19:00N 53°30' W 052°54'6 6.0 240 / 14995.0 -0.8-0.7
2017-Nov-24 18:00N 53°24' W 052°54'7 3.6 260 / 16994.6 -0.3-0.2
2017-Nov-24 16:00N 53°24' W 053°06'9 9.3 250 / 14994.7 -0.1-0.0
2017-Nov-24 15:00N 53°18' W 053°18'9 9.4 260 / 13994.8 0.3 0.4
2017-Nov-24 14:00N 53°12' W 053°30'4 3.6 250 / 19994.6 0.6 0.7
2017-Nov-24 13:00N 53°12' W 053°24'19 9.5 250 / 17994.3 0.9 0.9
2017-Nov-24 11:00N 53°06' W 053°54'6 6.0 260 / 19992.6 0.5 0.6
2017-Nov-24 10:00N 53°00' W 053°54'4 3.6 270 / 21991.4 1.0 1.0
2017-Nov-24 09:00N 53°00' W 054°00'4 3.6 270 / 22990.7 0.8 0.9
2017-Nov-24 08:00N 53°00' W 054°06'7 3.5 300 / 23988.4 0.8 0.9
2017-Nov-24 06:00N 53°06' W 054°12'4 3.6 310 / 8987.1 1.0 1.1
2017-Nov-24 05:00N 53°06' W 054°18'6 6.0 300 / 13985.6 1.5 1.7
2017-Nov-24 04:00N 53°12' W 054°18'0 0.0 280 / 16985.0 1.5 1.6
2017-Nov-24 03:00N 53°12' W 054°18'18 9.2 220 / 7984.7 1.6 1.7
2017-Nov-24 01:00N 52°54' W 054°12'4 3.6 140 / 13984.8 1.6 1.7
2017-Nov-24 00:00N 52°54' W 054°06'4 3.6 130 / 21985.8 2.1 2.2
2017-Nov-23 23:00N 52°54' W 054°12'4 3.6 120 / 19987.5 1.7 1.8
2017-Nov-23 22:00N 52°54' W 054°06'7 7.0 150 / 11989.2 1.7 1.8
2017-Nov-23 21:00N 52°48' W 054°00'4 3.6 120 / 29990.8 2.0 2.1
2017-Nov-23 20:00N 52°48' W 054°06'6 6.0 090 / 25992.7 1.4 1.5
2017-Nov-23 19:00N 52°42' W 054°06'6 6.0 130 / 16995.3 1.3 1.4
2017-Nov-23 18:00N 52°36' W 054°06'0 0.0 100 / 26997.1 0.8 0.9
2017-Nov-23 17:00N 52°36' W 054°06'9 9.4 100 / 26998.6 0.7 0.8
2017-Nov-23 16:00N 52°42' W 053°54'0 0.0 130 / 201002.5 0.9 1.0
2017-Nov-23 15:00N 52°42' W 053°54'9 9.4 140 / 191004.6 1.0 1.0
2017-Nov-23 14:00N 52°36' W 054°06'0 0.0 130 / 141006.0 0.9 0.9
2017-Nov-23 13:00N 52°36' W 054°06'4 3.6 140 / 161007.6 0.6 0.7
2017-Nov-23 12:00N 52°36' W 054°12'7 7.3 160 / 191008.8 0.8 0.8
2017-Nov-23 11:00N 52°36' W 054°24'1212.5 150 / 161010.1 0.6 0.7
2017-Nov-23 10:00N 52°42' W 054°42'0 0.0 160 / 161010.8 0.8 0.8
2017-Nov-23 09:00N 52°42' W 054°42'0 0.0 210 / 31012.2 0.9 1.0
2017-Nov-23 08:00N 52°42' W 054°42'7 7.0 130 / 111012.5 0.5 0.5
2017-Nov-23 07:00N 52°36' W 054°48'0 0.0 200 / 41014.3 0.4 0.4
2017-Nov-23 06:00N 52°36' W 054°48'0 0.0 210 / 61015.2 0.4 0.4
2017-Nov-23 05:00N 52°36' W 054°48'1312.5 210 / 31015.9 0.3 0.3
2017-Nov-23 04:00N 52°24' W 054°54'6 6.0 280 / 31016.3 0.4 0.3
2017-Nov-23 03:00N 52°18' W 054°54'1312.6 340 / 31016.9 0.6 0.5
2017-Nov-23 02:00N 52°06' W 055°00'1312.6 280 / 81017.5 1.0 0.9
2017-Nov-23 01:00N 51°54' W 055°06'7 7.1 240 / 131018.0 1.1 1.1
2017-Nov-23 00:00N 51°48' W 055°12'1212.0 290 / 131018.3 1.6 1.6
2017-Nov-22 23:00N 51°36' W 055°12'7 7.1 260 / 181019.3 0.5 0.5
2017-Nov-22 22:00N 51°30' W 055°18'13 6.4 260 / 111018.9 0.4 0.3
2017-Nov-22 20:00N 51°24' W 055°36'0 0.0 270 / 91020.1 0.5 0.4
2017-Nov-22 19:00N 51°24' W 055°36'0 0.0 1019.0 1.9 0.7
2017-Nov-22 18:00N 51°24' W 055°36'0 0.0 270 / 81018.8 2.0-0.0
2017-Nov-22 17:00N 51°24' W 055°36'0 0.0 290 / 71018.9 1.8 0.8
2017-Nov-22 15:00N 51°24' W 055°36'0 0.0 270 / 71018.9 1.3 1.0
2017-Nov-22 14:00N 51°24' W 055°36'0 0.0 280 / 131019.0 -0.0-0.1
2017-Nov-22 13:00N 51°24' W 055°36'0 0.0 270 / 91018.4 -0.3-0.5
2017-Nov-22 12:00N 51°24' W 055°36'0 0.0 270 / 131018.3 -1.9-2.1
2017-Nov-22 10:00N 51°24' W 055°36'0 0.0 270 / 91017.8 -2.7-2.8
2017-Nov-22 09:00N 51°24' W 055°36'0 0.0 290 / 51016.9 -2.7-2.8
2017-Nov-22 08:00N 51°24' W 055°36'0 0.0 280 / 61016.6 -2.9-3.0
2017-Nov-22 07:00N 51°24' W 055°36'0 0.0 270 / 101016.7 -3.0-3.1
2017-Nov-22 05:00N 51°24' W 055°36'0 0.0 280 / 91014.9 -2.6-2.7
2017-Nov-22 04:00N 51°24' W 055°36'0 0.0 280 / 101014.4 -2.4-2.5
2017-Nov-22 03:00N 51°24' W 055°36'0 0.0 270 / 81013.7 -2.3-2.4
2017-Nov-22 02:00N 51°24' W 055°36'0 0.0 270 / 101012.8 -2.0-2.1
2017-Nov-22 00:00N 51°24' W 055°36'0 0.0 260 / 91010.4 -1.2-1.4
2017-Nov-21 23:00N 51°24' W 055°36'0 0.0 280 / 151009.3 -0.6-0.7
2017-Nov-21 22:00N 51°24' W 055°36'0 0.0 290 / 121008.9 -0.3-0.4
2017-Nov-21 21:00N 51°24' W 055°36'0 0.0 290 / 61007.1 -0.2-0.4
2017-Nov-21 20:00N 51°24' W 055°36'0 0.0 270 / 121005.3 -0.1-0.2
2017-Nov-21 19:00N 51°24' W 055°36'0 0.0 270 / 101004.7 0.2 0.1
2017-Nov-21 18:00N 51°24' W 055°36'0 0.0 260 / 71003.7 0.8 0.7
2017-Nov-21 17:00N 51°24' W 055°36'0 0.0 260 / 71002.4 1.1 1.1
2017-Nov-21 16:00N 51°24' W 055°36'0 0.0 270 / 91001.0 1.1 1.1
2017-Nov-21 15:00N 51°24' W 055°36'0 0.0 210 / 3999.7 2.1 2.0
2017-Nov-21 14:00N 51°24' W 055°36'0 0.0 200 / 11999.6 1.5 1.4
2017-Nov-21 13:00N 51°24' W 055°36'0 0.0 190 / 11998.7 1.3 1.2
2017-Nov-21 12:00N 51°24' W 055°36'0 0.0 200 / 9997.9 0.8 0.7
2017-Nov-21 11:00N 51°24' W 055°36'7 7.1 210 / 11996.5 0.6 0.5
2017-Nov-21 10:00N 51°18' W 055°30'8 7.5 220 / 18995.7 0.9 0.7
2017-Nov-21 09:00N 51°18' W 055°18'10 9.6 240 / 20995.2 1.2 1.2
2017-Nov-21 08:00N 51°24' W 055°06'4 3.7 230 / 24994.6 1.9 1.8
2017-Nov-21 07:00N 51°24' W 055°00'7 7.1 210 / 24993.8 2.2 2.1
2017-Nov-21 06:00N 51°30' W 054°54'6 6.0 230 / 26992.4 2.5 2.4
2017-Nov-21 05:00N 51°36' W 054°54'7 7.1 240 / 23992.6 2.7 2.6
2017-Nov-21 04:00N 51°42' W 054°48'7 7.1 230 / 19992.7 2.5 2.6
2017-Nov-21 03:00N 51°48' W 054°42'7 7.1 230 / 16992.6 2.6 2.7
2017-Nov-21 02:00N 51°54' W 054°36'10 4.8 250 / 15991.9 2.6 2.7
2017-Nov-21 00:00N 52°00' W 054°24'1414.1 240 / 15991.0 2.6 2.8
2017-Nov-20 23:00N 52°12' W 054°12'7 7.0 210 / 7990.9 1.8 2.0
2017-Nov-20 22:00N 52°18' W 054°06'9 9.5 140 / 15991.3 2.0 2.2
2017-Nov-20 21:00N 52°24' W 053°54'2110.5 120 / 23991.5 2.1 2.3
2017-Nov-20 19:00N 52°42' W 053°36'7 7.0 110 / 27994.0 1.7 1.9
2017-Nov-20 18:00N 52°48' W 053°30'7 7.0 110 / 25995.4 1.7 1.9
2017-Nov-20 17:00N 52°54' W 053°24'0 0.0 996.9 1.9 2.1
2017-Nov-20 16:00N 52°54' W 053°24'12 6.2 120 / 26996.4 1.6 1.8
2017-Nov-20 14:00N 53°00' W 053°06'6 6.0 130 / 9999.5 1.9 2.1
2017-Nov-20 13:00N 52°54' W 053°06'1414.0 110 / 211000.6 1.1 1.3
2017-Nov-20 12:00N 53°06' W 052°54'7 7.0 120 / 181001.6 1.8 1.9
2017-Nov-20 11:00N 53°12' W 052°48'12 6.2 100 / 261000.0 2.2 2.4
2017-Nov-20 09:00N 53°06' W 052°30'4 3.6 110 / 111003.6 2.0 2.1
2017-Nov-20 08:00N 53°06' W 052°24'4 3.6 110 / 71002.6 2.0 2.1
2017-Nov-20 07:00N 53°06' W 052°30'7 7.2 090 / 81003.1 2.2 2.4
2017-Nov-20 06:00N 53°06' W 052°18'0 0.0 060 / 111003.9 2.3 2.5
2017-Nov-20 04:00N 53°06' W 052°18'9 9.4 050 / 121003.8 2.8 3.0
2017-Nov-20 03:00N 53°12' W 052°06'4 3.6 070 / 71003.4 2.7 2.9
2017-Nov-20 02:00N 53°12' W 052°00'4 3.6 060 / 101003.2 3.1 3.3
2017-Nov-20 01:00N 53°12' W 052°06'7 3.5 050 / 111003.3 3.3 3.5
2017-Nov-19 23:00N 53°06' W 052°00'4 3.6 040 / 141002.1 2.9 3.0
2017-Nov-19 22:00N 53°06' W 052°06'7 7.0 040 / 121001.9 3.1 3.3
2017-Nov-19 21:00N 53°00' W 052°00'6 6.0 040 / 111001.0 2.8 3.0
2017-Nov-19 20:00N 52°54' W 052°00'4 3.6 020 / 61000.7 2.7 2.8
2017-Nov-19 19:00N 52°54' W 051°54'0 0.0 360 / 81000.3 2.7 2.8
2017-Nov-19 18:00N 52°54' W 051°54'7 7.0 330 / 7999.3 2.1 2.3
2017-Nov-19 17:00N 52°48' W 051°48'7 7.0 320 / 8998.7 1.6 1.7
2017-Nov-19 16:00N 52°54' W 051°54'7 7.0 340 / 6998.1 1.6 1.7
2017-Nov-19 15:00N 52°48' W 051°48'4 3.6 360 / 8997.8 1.2 1.3
2017-Nov-19 14:00N 52°48' W 051°42'0 0.0 350 / 8997.4 1.6 1.7
2017-Nov-19 13:00N 52°48' W 051°42'7 7.0 330 / 7996.9 1.1 1.2
2017-Nov-19 12:00N 52°42' W 051°36'9 4.7 260 / 5996.5 1.3 1.4
2017-Nov-19 10:00N 52°36' W 051°24'0 0.0 300 / 1995.2 1.2 1.3
2017-Nov-19 09:00N 52°36' W 051°24'4 3.6 260 / 4995.5 1.3 1.4
2017-Nov-19 08:00N 52°36' W 051°30'4 3.6 240 / 2995.1 1.5 1.6
2017-Nov-19 07:00N 52°36' W 051°36'9 9.4 120 / 7994.5 2.0 2.1
2017-Nov-19 06:00N 52°30' W 051°24'4 1.8 110 / 7993.8 1.7 1.8
2017-Nov-19 04:00N 52°30' W 051°30'6 6.0 300 / 5994.2 1.7 1.8
2017-Nov-19 03:00N 52°24' W 051°30'4 3.7 350 / 6994.2 2.1 2.3
2017-Nov-19 02:00N 52°24' W 051°24'7 7.3 360 / 8994.2 2.3 2.4
2017-Nov-19 01:00N 52°24' W 051°12'4 1.8 020 / 9994.4 2.8 2.9
2017-Nov-18 23:00N 52°24' W 051°06'4 3.7 010 / 13994.6 2.8 2.9
2017-Nov-18 22:00N 52°24' W 051°00'6 6.0 020 / 12995.1 3.1 3.2
2017-Nov-18 21:00N 52°18' W 051°00'7 7.0 010 / 11996.2 2.7 2.8
2017-Nov-18 20:00N 52°24' W 051°06'9 4.7 020 / 11997.4 3.0 3.1
2017-Nov-18 18:00N 52°18' W 050°54'0 0.0 040 / 14997.4 3.3 3.4
2017-Nov-18 17:00N 52°18' W 050°54'0 0.0 040 / 18998.4 3.3 3.4
2017-Nov-18 16:00N 52°18' W 050°54'7 7.0 060 / 14999.2 3.8 3.9
2017-Nov-18 15:00N 52°12' W 051°00'13 6.3 070 / 17999.4 3.4 3.5
2017-Nov-18 13:00N 52°06' W 051°18'0 0.0 070 / 181001.4 2.9 3.0
2017-Nov-18 12:00N 52°06' W 051°18'6 6.0 070 / 161002.1 2.7 2.8
2017-Nov-18 11:00N 52°00' W 051°18'6 6.0 080 / 231001.8 3.2 3.3
2017-Nov-18 10:00N 51°54' W 051°18'0 0.0 090 / 191001.9 3.4 3.5
2017-Nov-18 08:00N 51°54' W 051°18'7 7.1 080 / 201002.9 3.4 3.5
2017-Nov-18 07:00N 51°48' W 051°24'4 3.7 080 / 221003.4 3.4 3.5
2017-Nov-18 06:00N 51°48' W 051°18'7 7.4 090 / 111004.8 3.3 3.4
2017-Nov-18 05:00N 51°48' W 051°06'0 0.0 070 / 111005.3 3.3 3.3
2017-Nov-18 03:00N 51°48' W 051°06'6 6.0 060 / 141006.2 2.8 2.8
2017-Nov-18 02:00N 51°42' W 051°06'0 0.0 060 / 151006.7 3.4 3.4
2017-Nov-18 01:00N 51°42' W 051°06'6 6.0 060 / 141006.9 3.1 3.1
2017-Nov-18 00:00N 51°36' W 051°06'0 0.0 040 / 121008.0 3.3 3.4
2017-Nov-17 23:00N 51°36' W 051°06'6 6.0 090 / 81008.9 3.5 3.5
2017-Nov-17 22:00N 51°30' W 051°06'1312.6 060 / 141008.9 3.5 3.5
2017-Nov-17 21:00N 51°18' W 051°12'6 6.0 050 / 131009.9 3.3 3.3
2017-Nov-17 20:00N 51°24' W 051°12'10 9.6 080 / 41010.1 3.5 3.4
2017-Nov-17 19:00N 51°18' W 051°00'4 3.8 060 / 141010.4 3.4 3.3
2017-Nov-17 18:00N 51°18' W 050°54'0 0.0 040 / 141010.2 3.2 3.1
2017-Nov-17 17:00N 51°18' W 050°54'4 3.8 060 / 81010.6 3.7 3.7
2017-Nov-17 16:00N 51°18' W 050°48'6 6.0 030 / 141011.5 3.2 3.2
2017-Nov-17 15:00N 51°24' W 050°48'0 0.0 040 / 141012.1 3.4 3.3
2017-Nov-17 14:00N 51°24' W 050°48'4 3.7 050 / 31013.1 3.7 3.7
2017-Nov-17 13:00N 51°24' W 050°42'4 3.7 040 / 121013.8 3.3 3.2
2017-Nov-17 12:00N 51°24' W 050°36'0 0.0 050 / 71013.0 3.3 3.2
2017-Nov-17 11:00N 51°24' W 050°36'1212.0 040 / 141013.1 2.9 2.8
2017-Nov-17 10:00N 51°12' W 050°36'18 9.2 050 / 191012.5 2.9 2.9
2017-Nov-17 08:00N 50°54' W 050°30'0 0.0 020 / 151013.2 2.2 2.2
2017-Nov-17 07:00N 50°54' W 050°30'0 0.0 020 / 161012.9 2.1 2.0
2017-Nov-17 06:00N 50°54' W 050°30'6 6.0 360 / 161013.3 2.2 2.1
2017-Nov-17 05:00N 50°48' W 050°30'10 3.2 010 / 171013.6 2.1 2.1
2017-Nov-17 02:00N 50°42' W 050°18'0 0.0 360 / 181014.2 2.9 2.8
2017-Nov-17 01:00N 50°42' W 050°18'6 2.0 010 / 171014.7 2.7 2.7
2017-Nov-16 22:00N 50°36' W 050°18'10 9.7 350 / 201015.3 2.2 2.2
2017-Nov-16 21:00N 50°42' W 050°06'6 6.0 350 / 201015.3 2.4 2.4
2017-Nov-16 20:00N 50°36' W 050°06'6 6.0 350 / 221014.9 2.7 2.6
2017-Nov-16 19:00N 50°42' W 050°06'19 9.7 360 / 201015.0 3.0 2.9
2017-Nov-16 17:00N 50°30' W 049°42'0 0.0 360 / 211014.5 3.5 3.4
2017-Nov-16 16:00N 50°30' W 049°42'7 7.1 360 / 281014.8 3.2 3.1
2017-Nov-16 15:00N 50°24' W 049°48'1312.6 350 / 221015.4 3.6 3.5
2017-Nov-16 14:00N 50°36' W 049°42'1312.6 360 / 191016.6 4.1 4.0
2017-Nov-16 13:00N 50°48' W 049°36'7 7.1 020 / 191017.2 3.1 3.0
2017-Nov-16 12:00N 50°54' W 049°30'4 3.8 020 / 201017.4 2.6 2.5
2017-Nov-16 11:00N 50°54' W 049°36'0 0.0 020 / 211017.2 2.1 2.0
2017-Nov-16 10:00N 50°54' W 049°36'4 3.8 060 / 111017.6 1.9 1.7
2017-Nov-16 09:00N 50°54' W 049°42'1312.8 360 / 231017.8 0.9 0.7
2017-Nov-16 08:00N 51°00' W 050°00'10 9.6 360 / 191018.8 -0.2-0.3
2017-Nov-16 07:00N 51°06' W 050°12'0 0.0 360 / 131019.8 -0.4-0.5
2017-Nov-16 06:00N 51°06' W 050°12'4 3.8 010 / 121020.0 -0.5-0.7
2017-Nov-16 05:00N 51°06' W 050°06'1414.2 010 / 111020.7 -0.4-0.6
2017-Nov-16 04:00N 51°18' W 049°54'0 0.0 010 / 81021.2 -0.5-0.6
2017-Nov-16 03:00N 51°18' W 049°54'0 0.0 340 / 81021.3 -0.9-1.1
2017-Nov-16 02:00N 51°18' W 049°54'6 6.0 340 / 81021.6 -0.9-1.1
2017-Nov-16 01:00N 51°24' W 049°54'0 0.0 340 / 61022.2 -0.5-0.7
2017-Nov-16 00:00N 51°24' W 049°54'0 0.0 340 / 31022.4 -0.9-1.1
2017-Nov-15 23:00N 51°24' W 049°54'0 0.0 350 / 81022.3 -0.8-1.0
2017-Nov-15 22:00N 51°24' W 049°54'10 9.6 340 / 71022.9 -1.1-1.5
2017-Nov-15 21:00N 51°30' W 050°06'10 9.6 290 / 31023.2 -1.1-1.9
2017-Nov-15 20:00N 51°36' W 050°18'7 7.1 230 / 61023.5 -1.2-1.8
2017-Nov-15 19:00N 51°42' W 050°24'4 3.7 210 / 91023.8 -1.1-2.0
2017-Nov-15 18:00N 51°42' W 050°30'4 1.9 220 / 81024.1 -0.8-1.9
2017-Nov-15 16:00N 51°42' W 050°24'0 0.0 230 / 41024.5 -0.3-2.1
2017-Nov-15 15:00N 51°42' W 050°24'4 3.7 230 / 41025.3 -1.3-3.1
2017-Nov-15 14:00N 51°42' W 050°30'7 3.5 250 / 71026.7 -0.6-2.7
2017-Nov-15 12:00N 51°48' W 050°36'0 0.0 220 / 31026.7 -1.4-3.3
2017-Nov-15 11:00N 51°48' W 050°36'   270 / 41026.4 -1.7-3.4
Track history (hours):
 
Tides and Currents Weather Stations Pressure Air Temp Water Temp Dewpoint Dewpoint Depression Visibility Wind Speed Wind Dir Waves Ship Positions

Teleost

Last reported at 2017-Nov-25 11:00 UTC. Time now 2017-Nov-25 11:52 UTC.
Position N 53°54' W 052°36'.

Length 63 m; draft 7.2 m.

Type: Ship. MMSI: 316002140.

Wind from 250 at 22 knots

Barometer 1009.7 mb
Air temperature -3.8 ° C
Dewpoint -4.4 ° C

Date/timePositionNaut miles runAvg speedWind from/ knotsBaromVisibWave heightAir tempDewpointWater temp
2017-Nov-25 11:00N 53°54' W 052°36'1212.0 250 / 221009.7 -3.8-4.4
2017-Nov-25 10:00N 54°06' W 052°36'6 6.0 270 / 251008.2 -3.7-4.3
2017-Nov-25 09:00N 54°00' W 052°36'6 6.0 260 / 271007.5 -4.0-4.7
2017-Nov-25 08:00N 53°54' W 052°36'0 0.0 270 / 231006.5 -4.0-4.3
2017-Nov-25 07:00N 53°54' W 052°36'0 0.0 270 / 251005.2 -3.6-3.7
2017-Nov-25 06:00N 53°54' W 052°36'7 7.0 280 / 281003.9 -3.2-3.7
2017-Nov-25 05:00N 53°48' W 052°30'7 7.0 280 / 291002.4 -2.6-2.8
2017-Nov-25 04:00N 53°42' W 052°24'4 3.6 270 / 261001.1 -2.8-2.9
2017-Nov-25 03:00N 53°42' W 052°18'7 7.0 280 / 261000.0 -2.2-2.3
2017-Nov-25 02:00N 53°36' W 052°12'0 0.0 280 / 3999.4 -1.6-1.7
2017-Nov-25 01:00N 53°36' W 052°12'0 0.0 280 / 18998.6 -1.0-1.1
2017-Nov-25 00:00N 53°36' W 052°12'7 7.1 290 / 28997.4 -1.7-1.7
2017-Nov-24 23:00N 53°36' W 052°24'15 7.7 290 / 21996.9 -1.7-1.6
2017-Nov-24 21:00N 53°42' W 052°48'4 3.6 270 / 4995.6 -0.4-0.3
2017-Nov-24 20:00N 53°42' W 052°42'1414.0 240 / 12995.4 -0.7-0.6
2017-Nov-24 19:00N 53°30' W 052°54'6 6.0 240 / 14995.0 -0.8-0.7
2017-Nov-24 18:00N 53°24' W 052°54'7 3.6 260 / 16994.6 -0.3-0.2
2017-Nov-24 16:00N 53°24' W 053°06'9 9.3 250 / 14994.7 -0.1-0.0
2017-Nov-24 15:00N 53°18' W 053°18'9 9.4 260 / 13994.8 0.3 0.4
2017-Nov-24 14:00N 53°12' W 053°30'4 3.6 250 / 19994.6 0.6 0.7
2017-Nov-24 13:00N 53°12' W 053°24'19 9.5 250 / 17994.3 0.9 0.9
2017-Nov-24 11:00N 53°06' W 053°54'6 6.0 260 / 19992.6 0.5 0.6
2017-Nov-24 10:00N 53°00' W 053°54'4 3.6 270 / 21991.4 1.0 1.0
2017-Nov-24 09:00N 53°00' W 054°00'4 3.6 270 / 22990.7 0.8 0.9
2017-Nov-24 08:00N 53°00' W 054°06'7 3.5 300 / 23988.4 0.8 0.9
2017-Nov-24 06:00N 53°06' W 054°12'4 3.6 310 / 8987.1 1.0 1.1
2017-Nov-24 05:00N 53°06' W 054°18'6 6.0 300 / 13985.6 1.5 1.7
2017-Nov-24 04:00N 53°12' W 054°18'0 0.0 280 / 16985.0 1.5 1.6
2017-Nov-24 03:00N 53°12' W 054°18'18 9.2 220 / 7984.7 1.6 1.7
2017-Nov-24 01:00N 52°54' W 054°12'4 3.6 140 / 13984.8 1.6 1.7
2017-Nov-24 00:00N 52°54' W 054°06'4 3.6 130 / 21985.8 2.1 2.2
2017-Nov-23 23:00N 52°54' W 054°12'4 3.6 120 / 19987.5 1.7 1.8
2017-Nov-23 22:00N 52°54' W 054°06'7 7.0 150 / 11989.2 1.7 1.8
2017-Nov-23 21:00N 52°48' W 054°00'4 3.6 120 / 29990.8 2.0 2.1
2017-Nov-23 20:00N 52°48' W 054°06'6 6.0 090 / 25992.7 1.4 1.5
2017-Nov-23 19:00N 52°42' W 054°06'6 6.0 130 / 16995.3 1.3 1.4
2017-Nov-23 18:00N 52°36' W 054°06'0 0.0 100 / 26997.1 0.8 0.9
2017-Nov-23 17:00N 52°36' W 054°06'9 9.4 100 / 26998.6 0.7 0.8
2017-Nov-23 16:00N 52°42' W 053°54'0 0.0 130 / 201002.5 0.9 1.0
2017-Nov-23 15:00N 52°42' W 053°54'9 9.4 140 / 191004.6 1.0 1.0
2017-Nov-23 14:00N 52°36' W 054°06'0 0.0 130 / 141006.0 0.9 0.9
2017-Nov-23 13:00N 52°36' W 054°06'4 3.6 140 / 161007.6 0.6 0.7
2017-Nov-23 12:00N 52°36' W 054°12'7 7.3 160 / 191008.8 0.8 0.8
2017-Nov-23 11:00N 52°36' W 054°24'1212.5 150 / 161010.1 0.6 0.7
2017-Nov-23 10:00N 52°42' W 054°42'0 0.0 160 / 161010.8 0.8 0.8
2017-Nov-23 09:00N 52°42' W 054°42'0 0.0 210 / 31012.2 0.9 1.0
2017-Nov-23 08:00N 52°42' W 054°42'7 7.0 130 / 111012.5 0.5 0.5
2017-Nov-23 07:00N 52°36' W 054°48'0 0.0 200 / 41014.3 0.4 0.4
2017-Nov-23 06:00N 52°36' W 054°48'0 0.0 210 / 61015.2 0.4 0.4
2017-Nov-23 05:00N 52°36' W 054°48'1312.5 210 / 31015.9 0.3 0.3
2017-Nov-23 04:00N 52°24' W 054°54'6 6.0 280 / 31016.3 0.4 0.3
2017-Nov-23 03:00N 52°18' W 054°54'1312.6 340 / 31016.9 0.6 0.5
2017-Nov-23 02:00N 52°06' W 055°00'1312.6 280 / 81017.5 1.0 0.9
2017-Nov-23 01:00N 51°54' W 055°06'7 7.1 240 / 131018.0 1.1 1.1
2017-Nov-23 00:00N 51°48' W 055°12'1212.0 290 / 131018.3 1.6 1.6
2017-Nov-22 23:00N 51°36' W 055°12'7 7.1 260 / 181019.3 0.5 0.5
2017-Nov-22 22:00N 51°30' W 055°18'13 6.4 260 / 111018.9 0.4 0.3
2017-Nov-22 20:00N 51°24' W 055°36'0 0.0 270 / 91020.1 0.5 0.4
2017-Nov-22 19:00N 51°24' W 055°36'0 0.0 1019.0 1.9 0.7
2017-Nov-22 18:00N 51°24' W 055°36'0 0.0 270 / 81018.8 2.0-0.0
2017-Nov-22 17:00N 51°24' W 055°36'0 0.0 290 / 71018.9 1.8 0.8
2017-Nov-22 15:00N 51°24' W 055°36'0 0.0 270 / 71018.9 1.3 1.0
2017-Nov-22 14:00N 51°24' W 055°36'0 0.0 280 / 131019.0 -0.0-0.1
2017-Nov-22 13:00N 51°24' W 055°36'0 0.0 270 / 91018.4 -0.3-0.5
2017-Nov-22 12:00N 51°24' W 055°36'0 0.0 270 / 131018.3 -1.9-2.1
2017-Nov-22 10:00N 51°24' W 055°36'0 0.0 270 / 91017.8 -2.7-2.8
2017-Nov-22 09:00N 51°24' W 055°36'0 0.0 290 / 51016.9 -2.7-2.8
2017-Nov-22 08:00N 51°24' W 055°36'0 0.0 280 / 61016.6 -2.9-3.0
2017-Nov-22 07:00N 51°24' W 055°36'0 0.0 270 / 101016.7 -3.0-3.1
2017-Nov-22 05:00N 51°24' W 055°36'0 0.0 280 / 91014.9 -2.6-2.7
2017-Nov-22 04:00N 51°24' W 055°36'0 0.0 280 / 101014.4 -2.4-2.5
2017-Nov-22 03:00N 51°24' W 055°36'0 0.0 270 / 81013.7 -2.3-2.4
2017-Nov-22 02:00N 51°24' W 055°36'0 0.0 270 / 101012.8 -2.0-2.1
2017-Nov-22 00:00N 51°24' W 055°36'0 0.0 260 / 91010.4 -1.2-1.4
2017-Nov-21 23:00N 51°24' W 055°36'0 0.0 280 / 151009.3 -0.6-0.7
2017-Nov-21 22:00N 51°24' W 055°36'0 0.0 290 / 121008.9 -0.3-0.4
2017-Nov-21 21:00N 51°24' W 055°36'0 0.0 290 / 61007.1 -0.2-0.4
2017-Nov-21 20:00N 51°24' W 055°36'0 0.0 270 / 121005.3 -0.1-0.2
2017-Nov-21 19:00N 51°24' W 055°36'0 0.0 270 / 101004.7 0.2 0.1
2017-Nov-21 18:00N 51°24' W 055°36'0 0.0 260 / 71003.7 0.8 0.7
2017-Nov-21 17:00N 51°24' W 055°36'0 0.0 260 / 71002.4 1.1 1.1
2017-Nov-21 16:00N 51°24' W 055°36'0 0.0 270 / 91001.0 1.1 1.1
2017-Nov-21 15:00N 51°24' W 055°36'0 0.0 210 / 3999.7 2.1 2.0
2017-Nov-21 14:00N 51°24' W 055°36'0 0.0 200 / 11999.6 1.5 1.4
2017-Nov-21 13:00N 51°24' W 055°36'0 0.0 190 / 11998.7 1.3 1.2
2017-Nov-21 12:00N 51°24' W 055°36'0 0.0 200 / 9997.9 0.8 0.7
2017-Nov-21 11:00N 51°24' W 055°36'7 7.1 210 / 11996.5 0.6 0.5
2017-Nov-21 10:00N 51°18' W 055°30'8 7.5 220 / 18995.7 0.9 0.7
2017-Nov-21 09:00N 51°18' W 055°18'10 9.6 240 / 20995.2 1.2 1.2
2017-Nov-21 08:00N 51°24' W 055°06'4 3.7 230 / 24994.6 1.9 1.8
2017-Nov-21 07:00N 51°24' W 055°00'7 7.1 210 / 24993.8 2.2 2.1
2017-Nov-21 06:00N 51°30' W 054°54'6 6.0 230 / 26992.4 2.5 2.4
2017-Nov-21 05:00N 51°36' W 054°54'7 7.1 240 / 23992.6 2.7 2.6
2017-Nov-21 04:00N 51°42' W 054°48'7 7.1 230 / 19992.7 2.5 2.6
2017-Nov-21 03:00N 51°48' W 054°42'7 7.1 230 / 16992.6 2.6 2.7
2017-Nov-21 02:00N 51°54' W 054°36'10 4.8 250 / 15991.9 2.6 2.7
2017-Nov-21 00:00N 52°00' W 054°24'1414.1 240 / 15991.0 2.6 2.8
2017-Nov-20 23:00N 52°12' W 054°12'7 7.0 210 / 7990.9 1.8 2.0
2017-Nov-20 22:00N 52°18' W 054°06'9 9.5 140 / 15991.3 2.0 2.2
2017-Nov-20 21:00N 52°24' W 053°54'2110.5 120 / 23991.5 2.1 2.3
2017-Nov-20 19:00N 52°42' W 053°36'7 7.0 110 / 27994.0 1.7 1.9
2017-Nov-20 18:00N 52°48' W 053°30'7 7.0 110 / 25995.4 1.7 1.9
2017-Nov-20 17:00N 52°54' W 053°24'0 0.0 996.9 1.9 2.1
2017-Nov-20 16:00N 52°54' W 053°24'12 6.2 120 / 26996.4 1.6 1.8
2017-Nov-20 14:00N 53°00' W 053°06'6 6.0 130 / 9999.5 1.9 2.1
2017-Nov-20 13:00N 52°54' W 053°06'1414.0 110 / 211000.6 1.1 1.3
2017-Nov-20 12:00N 53°06' W 052°54'7 7.0 120 / 181001.6 1.8 1.9
2017-Nov-20 11:00N 53°12' W 052°48'12 6.2 100 / 261000.0 2.2 2.4
2017-Nov-20 09:00N 53°06' W 052°30'4 3.6 110 / 111003.6 2.0 2.1
2017-Nov-20 08:00N 53°06' W 052°24'4 3.6 110 / 71002.6 2.0 2.1
2017-Nov-20 07:00N 53°06' W 052°30'7 7.2 090 / 81003.1 2.2 2.4
2017-Nov-20 06:00N 53°06' W 052°18'0 0.0 060 / 111003.9 2.3 2.5
2017-Nov-20 04:00N 53°06' W 052°18'9 9.4 050 / 121003.8 2.8 3.0
2017-Nov-20 03:00N 53°12' W 052°06'4 3.6 070 / 71003.4 2.7 2.9
2017-Nov-20 02:00N 53°12' W 052°00'4 3.6 060 / 101003.2 3.1 3.3
2017-Nov-20 01:00N 53°12' W 052°06'7 3.5 050 / 111003.3 3.3 3.5
2017-Nov-19 23:00N 53°06' W 052°00'4 3.6 040 / 141002.1 2.9 3.0
2017-Nov-19 22:00N 53°06' W 052°06'7 7.0 040 / 121001.9 3.1 3.3
2017-Nov-19 21:00N 53°00' W 052°00'6 6.0 040 / 111001.0 2.8 3.0
2017-Nov-19 20:00N 52°54' W 052°00'4 3.6 020 / 61000.7 2.7 2.8
2017-Nov-19 19:00N 52°54' W 051°54'0 0.0 360 / 81000.3 2.7 2.8
2017-Nov-19 18:00N 52°54' W 051°54'7 7.0 330 / 7999.3 2.1 2.3
2017-Nov-19 17:00N 52°48' W 051°48'7 7.0 320 / 8998.7 1.6 1.7
2017-Nov-19 16:00N 52°54' W 051°54'7 7.0 340 / 6998.1 1.6 1.7
2017-Nov-19 15:00N 52°48' W 051°48'4 3.6 360 / 8997.8 1.2 1.3
2017-Nov-19 14:00N 52°48' W 051°42'0 0.0 350 / 8997.4 1.6 1.7
2017-Nov-19 13:00N 52°48' W 051°42'7 7.0 330 / 7996.9 1.1 1.2
2017-Nov-19 12:00N 52°42' W 051°36'9 4.7 260 / 5996.5 1.3 1.4
2017-Nov-19 10:00N 52°36' W 051°24'0 0.0 300 / 1995.2 1.2 1.3
2017-Nov-19 09:00N 52°36' W 051°24'4 3.6 260 / 4995.5 1.3 1.4
2017-Nov-19 08:00N 52°36' W 051°30'4 3.6 240 / 2995.1 1.5 1.6
2017-Nov-19 07:00N 52°36' W 051°36'9 9.4 120 / 7994.5 2.0 2.1
2017-Nov-19 06:00N 52°30' W 051°24'4 1.8 110 / 7993.8 1.7 1.8
2017-Nov-19 04:00N 52°30' W 051°30'6 6.0 300 / 5994.2 1.7 1.8
2017-Nov-19 03:00N 52°24' W 051°30'4 3.7 350 / 6994.2 2.1 2.3
2017-Nov-19 02:00N 52°24' W 051°24'7 7.3 360 / 8994.2 2.3 2.4
2017-Nov-19 01:00N 52°24' W 051°12'4 1.8 020 / 9994.4 2.8 2.9
2017-Nov-18 23:00N 52°24' W 051°06'4 3.7 010 / 13994.6 2.8 2.9
2017-Nov-18 22:00N 52°24' W 051°00'6 6.0 020 / 12995.1 3.1 3.2
2017-Nov-18 21:00N 52°18' W 051°00'7 7.0 010 / 11996.2 2.7 2.8
2017-Nov-18 20:00N 52°24' W 051°06'9 4.7 020 / 11997.4 3.0 3.1
2017-Nov-18 18:00N 52°18' W 050°54'0 0.0 040 / 14997.4 3.3 3.4
2017-Nov-18 17:00N 52°18' W 050°54'0 0.0 040 / 18998.4 3.3 3.4
2017-Nov-18 16:00N 52°18' W 050°54'7 7.0 060 / 14999.2 3.8 3.9
2017-Nov-18 15:00N 52°12' W 051°00'13 6.3 070 / 17999.4 3.4 3.5
2017-Nov-18 13:00N 52°06' W 051°18'0 0.0 070 / 181001.4 2.9 3.0
2017-Nov-18 12:00N 52°06' W 051°18'6 6.0 070 / 161002.1 2.7 2.8
2017-Nov-18 11:00N 52°00' W 051°18'6 6.0 080 / 231001.8 3.2 3.3
2017-Nov-18 10:00N 51°54' W 051°18'0 0.0 090 / 191001.9 3.4 3.5
2017-Nov-18 08:00N 51°54' W 051°18'7 7.1 080 / 201002.9 3.4 3.5
2017-Nov-18 07:00N 51°48' W 051°24'4 3.7 080 / 221003.4 3.4 3.5
2017-Nov-18 06:00N 51°48' W 051°18'7 7.4 090 / 111004.8 3.3 3.4
2017-Nov-18 05:00N 51°48' W 051°06'0 0.0 070 / 111005.3 3.3 3.3
2017-Nov-18 03:00N 51°48' W 051°06'6 6.0 060 / 141006.2 2.8 2.8
2017-Nov-18 02:00N 51°42' W 051°06'0 0.0 060 / 151006.7 3.4 3.4
2017-Nov-18 01:00N 51°42' W 051°06'6 6.0 060 / 141006.9 3.1 3.1
2017-Nov-18 00:00N 51°36' W 051°06'0 0.0 040 / 121008.0 3.3 3.4
2017-Nov-17 23:00N 51°36' W 051°06'6 6.0 090 / 81008.9 3.5 3.5
2017-Nov-17 22:00N 51°30' W 051°06'1312.6 060 / 141008.9 3.5 3.5
2017-Nov-17 21:00N 51°18' W 051°12'6 6.0 050 / 131009.9 3.3 3.3
2017-Nov-17 20:00N 51°24' W 051°12'10 9.6 080 / 41010.1 3.5 3.4
2017-Nov-17 19:00N 51°18' W 051°00'4 3.8 060 / 141010.4 3.4 3.3
2017-Nov-17 18:00N 51°18' W 050°54'0 0.0 040 / 141010.2 3.2 3.1
2017-Nov-17 17:00N 51°18' W 050°54'4 3.8 060 / 81010.6 3.7 3.7
2017-Nov-17 16:00N 51°18' W 050°48'6 6.0 030 / 141011.5 3.2 3.2
2017-Nov-17 15:00N 51°24' W 050°48'0 0.0 040 / 141012.1 3.4 3.3
2017-Nov-17 14:00N 51°24' W 050°48'4 3.7 050 / 31013.1 3.7 3.7
2017-Nov-17 13:00N 51°24' W 050°42'4 3.7 040 / 121013.8 3.3 3.2
2017-Nov-17 12:00N 51°24' W 050°36'0 0.0 050 / 71013.0 3.3 3.2
2017-Nov-17 11:00N 51°24' W 050°36'1212.0 040 / 141013.1 2.9 2.8
2017-Nov-17 10:00N 51°12' W 050°36'18 9.2 050 / 191012.5 2.9 2.9
2017-Nov-17 08:00N 50°54' W 050°30'0 0.0 020 / 151013.2 2.2 2.2
2017-Nov-17 07:00N 50°54' W 050°30'0 0.0 020 / 161012.9 2.1 2.0
2017-Nov-17 06:00N 50°54' W 050°30'6 6.0 360 / 161013.3 2.2 2.1
2017-Nov-17 05:00N 50°48' W 050°30'10 3.2 010 / 171013.6 2.1 2.1
2017-Nov-17 02:00N 50°42' W 050°18'0 0.0 360 / 181014.2 2.9 2.8
2017-Nov-17 01:00N 50°42' W 050°18'6 2.0 010 / 171014.7 2.7 2.7
2017-Nov-16 22:00N 50°36' W 050°18'10 9.7 350 / 201015.3 2.2 2.2
2017-Nov-16 21:00N 50°42' W 050°06'6 6.0 350 / 201015.3 2.4 2.4
2017-Nov-16 20:00N 50°36' W 050°06'6 6.0 350 / 221014.9 2.7 2.6
2017-Nov-16 19:00N 50°42' W 050°06'19 9.7 360 / 201015.0 3.0 2.9
2017-Nov-16 17:00N 50°30' W 049°42'0 0.0 360 / 211014.5 3.5 3.4
2017-Nov-16 16:00N 50°30' W 049°42'7 7.1 360 / 281014.8 3.2 3.1
2017-Nov-16 15:00N 50°24' W 049°48'1312.6 350 / 221015.4 3.6 3.5
2017-Nov-16 14:00N 50°36' W 049°42'1312.6 360 / 191016.6 4.1 4.0
2017-Nov-16 13:00N 50°48' W 049°36'7 7.1 020 / 191017.2 3.1 3.0
2017-Nov-16 12:00N 50°54' W 049°30'4 3.8 020 / 201017.4 2.6 2.5
2017-Nov-16 11:00N 50°54' W 049°36'0 0.0 020 / 211017.2 2.1 2.0
2017-Nov-16 10:00N 50°54' W 049°36'4 3.8 060 / 111017.6 1.9 1.7
2017-Nov-16 09:00N 50°54' W 049°42'1312.8 360 / 231017.8 0.9 0.7
2017-Nov-16 08:00N 51°00' W 050°00'10 9.6 360 / 191018.8 -0.2-0.3
2017-Nov-16 07:00N 51°06' W 050°12'0 0.0 360 / 131019.8 -0.4-0.5
2017-Nov-16 06:00N 51°06' W 050°12'4 3.8 010 / 121020.0 -0.5-0.7
2017-Nov-16 05:00N 51°06' W 050°06'1414.2 010 / 111020.7 -0.4-0.6
2017-Nov-16 04:00N 51°18' W 049°54'0 0.0 010 / 81021.2 -0.5-0.6
2017-Nov-16 03:00N 51°18' W 049°54'0 0.0 340 / 81021.3 -0.9-1.1
2017-Nov-16 02:00N 51°18' W 049°54'6 6.0 340 / 81021.6 -0.9-1.1
2017-Nov-16 01:00N 51°24' W 049°54'0 0.0 340 / 61022.2 -0.5-0.7
2017-Nov-16 00:00N 51°24' W 049°54'0 0.0 340 / 31022.4 -0.9-1.1
2017-Nov-15 23:00N 51°24' W 049°54'0 0.0 350 / 81022.3 -0.8-1.0
2017-Nov-15 22:00N 51°24' W 049°54'10 9.6 340 / 71022.9 -1.1-1.5
2017-Nov-15 21:00N 51°30' W 050°06'10 9.6 290 / 31023.2 -1.1-1.9
2017-Nov-15 20:00N 51°36' W 050°18'7 7.1 230 / 61023.5 -1.2-1.8
2017-Nov-15 19:00N 51°42' W 050°24'4 3.7 210 / 91023.8 -1.1-2.0
2017-Nov-15 18:00N 51°42' W 050°30'4 1.9 220 / 81024.1 -0.8-1.9
2017-Nov-15 16:00N 51°42' W 050°24'0 0.0 230 / 41024.5 -0.3-2.1
2017-Nov-15 15:00N 51°42' W 050°24'4 3.7 230 / 41025.3 -1.3-3.1
2017-Nov-15 14:00N 51°42' W 050°30'7 3.5 250 / 71026.7 -0.6-2.7
2017-Nov-15 12:00N 51°48' W 050°36'0 0.0 220 / 31026.7 -1.4-3.3
2017-Nov-15 11:00N 51°48' W 050°36'   270 / 41026.4 -1.7-3.4

Dump ship's entire track history